sensor_id;sensor_type;location;lat;lon;timestamp;P1;durP1;ratioP1;P2;durP2;ratioP2
5774;SDS011;2913;51.120;6.772;2022-11-27T00:00:45;15.18;;;3.78;;
5774;SDS011;2913;51.120;6.772;2022-11-27T00:03:11;13.88;;;3.80;;
5774;SDS011;2913;51.120;6.772;2022-11-27T00:05:36;14.02;;;3.90;;
5774;SDS011;2913;51.120;6.772;2022-11-27T00:08:04;11.82;;;3.15;;
5774;SDS011;2913;51.120;6.772;2022-11-27T00:10:30;13.45;;;4.05;;
5774;SDS011;2913;51.120;6.772;2022-11-27T00:12:55;15.52;;;4.20;;
5774;SDS011;2913;51.120;6.772;2022-11-27T00:15:21;17.13;;;3.78;;
5774;SDS011;2913;51.120;6.772;2022-11-27T00:17:51;16.30;;;4.07;;
5774;SDS011;2913;51.120;6.772;2022-11-27T00:20:21;13.07;;;3.88;;
5774;SDS011;2913;51.120;6.772;2022-11-27T00:22:47;18.33;;;4.03;;
5774;SDS011;2913;51.120;6.772;2022-11-27T00:25:13;10.93;;;3.53;;
5774;SDS011;2913;51.120;6.772;2022-11-27T00:27:38;13.07;;;3.30;;
5774;SDS011;2913;51.120;6.772;2022-11-27T00:30:06;13.98;;;3.78;;
5774;SDS011;2913;51.120;6.772;2022-11-27T00:32:32;18.88;;;4.57;;
5774;SDS011;2913;51.120;6.772;2022-11-27T00:34:58;15.40;;;4.22;;
5774;SDS011;2913;51.120;6.772;2022-11-27T00:37:23;14.93;;;3.70;;
5774;SDS011;2913;51.120;6.772;2022-11-27T00:39:51;12.20;;;3.78;;
5774;SDS011;2913;51.120;6.772;2022-11-27T00:42:19;21.13;;;4.43;;
5774;SDS011;2913;51.120;6.772;2022-11-27T00:44:45;19.17;;;4.63;;
5774;SDS011;2913;51.120;6.772;2022-11-27T00:47:10;9.05;;;3.03;;
5774;SDS011;2913;51.120;6.772;2022-11-27T00:49:36;18.60;;;4.28;;
5774;SDS011;2913;51.120;6.772;2022-11-27T00:52:01;7.70;;;3.40;;
5774;SDS011;2913;51.120;6.772;2022-11-27T00:54:30;13.80;;;3.75;;
5774;SDS011;2913;51.120;6.772;2022-11-27T00:56:55;16.30;;;4.53;;
5774;SDS011;2913;51.120;6.772;2022-11-27T00:59:25;15.52;;;3.90;;
5774;SDS011;2913;51.120;6.772;2022-11-27T01:01:51;11.60;;;3.28;;
5774;SDS011;2913;51.120;6.772;2022-11-27T01:04:19;11.55;;;3.58;;
5774;SDS011;2913;51.120;6.772;2022-11-27T01:06:44;10.15;;;2.80;;
5774;SDS011;2913;51.120;6.772;2022-11-27T01:09:13;16.92;;;3.72;;
5774;SDS011;2913;51.120;6.772;2022-11-27T01:11:40;11.98;;;3.10;;
5774;SDS011;2913;51.120;6.772;2022-11-27T01:14:15;18.88;;;3.45;;
5774;SDS011;2913;51.120;6.772;2022-11-27T01:16:42;19.35;;;4.38;;
5774;SDS011;2913;51.120;6.772;2022-11-27T01:19:11;11.00;;;3.22;;
5774;SDS011;2913;51.120;6.772;2022-11-27T01:21:38;12.05;;;2.42;;
5774;SDS011;2913;51.120;6.772;2022-11-27T01:24:04;13.05;;;2.70;;
5774;SDS011;2913;51.120;6.772;2022-11-27T01:26:32;11.73;;;3.30;;
5774;SDS011;2913;51.120;6.772;2022-11-27T01:28:58;9.57;;;3.05;;
5774;SDS011;2913;51.120;6.772;2022-11-27T01:31:25;9.57;;;2.60;;
5774;SDS011;2913;51.120;6.772;2022-11-27T01:33:58;13.10;;;2.72;;
5774;SDS011;2913;51.120;6.772;2022-11-27T01:36:25;11.75;;;3.00;;
5774;SDS011;2913;51.120;6.772;2022-11-27T01:38:51;7.57;;;3.30;;
5774;SDS011;2913;51.120;6.772;2022-11-27T01:41:20;17.23;;;3.55;;
5774;SDS011;2913;51.120;6.772;2022-11-27T01:43:49;14.15;;;3.20;;
5774;SDS011;2913;51.120;6.772;2022-11-27T01:51:39;10.75;;;2.97;;
5774;SDS011;2913;51.120;6.772;2022-11-27T01:54:14;13.38;;;3.85;;
5774;SDS011;2913;51.120;6.772;2022-11-27T01:56:43;10.95;;;2.40;;
5774;SDS011;2913;51.120;6.772;2022-11-27T01:59:12;8.70;;;2.50;;
5774;SDS011;2913;51.120;6.772;2022-11-27T02:01:40;11.02;;;3.30;;
5774;SDS011;2913;51.120;6.772;2022-11-27T02:04:05;5.93;;;2.38;;
5774;SDS011;2913;51.120;6.772;2022-11-27T02:06:31;7.80;;;2.45;;
5774;SDS011;2913;51.120;6.772;2022-11-27T02:08:59;9.80;;;2.45;;
5774;SDS011;2913;51.120;6.772;2022-11-27T02:11:40;8.68;;;2.65;;
5774;SDS011;2913;51.120;6.772;2022-11-27T02:25:33;9.32;;;2.28;;
5774;SDS011;2913;51.120;6.772;2022-11-27T02:31:14;17.33;;;4.03;;
5774;SDS011;2913;51.120;6.772;2022-11-27T02:33:45;12.98;;;3.42;;
5774;SDS011;2913;51.120;6.772;2022-11-27T02:36:18;26.08;;;4.43;;
5774;SDS011;2913;51.120;6.772;2022-11-27T02:38:51;10.88;;;3.83;;
5774;SDS011;2913;51.120;6.772;2022-11-27T02:43:50;10.20;;;3.45;;
5774;SDS011;2913;51.120;6.772;2022-11-27T02:46:17;11.32;;;3.90;;
5774;SDS011;2913;51.120;6.772;2022-11-27T02:48:48;19.10;;;3.80;;
5774;SDS011;2913;51.120;6.772;2022-11-27T02:51:18;15.95;;;4.45;;
5774;SDS011;2913;51.120;6.772;2022-11-27T02:53:53;28.10;;;4.53;;
5774;SDS011;2913;51.120;6.772;2022-11-27T02:56:25;11.25;;;3.05;;
5774;SDS011;2913;51.120;6.772;2022-11-27T02:58:55;7.60;;;2.55;;
5774;SDS011;2913;51.120;6.772;2022-11-27T03:01:28;5.97;;;3.05;;
5774;SDS011;2913;51.120;6.772;2022-11-27T03:03:58;13.00;;;3.65;;
5774;SDS011;2913;51.120;6.772;2022-11-27T03:06:29;12.60;;;4.10;;
5774;SDS011;2913;51.120;6.772;2022-11-27T03:09:12;13.18;;;3.58;;
5774;SDS011;2913;51.120;6.772;2022-11-27T03:11:44;19.98;;;5.72;;
5774;SDS011;2913;51.120;6.772;2022-11-27T03:14:11;11.95;;;4.38;;
5774;SDS011;2913;51.120;6.772;2022-11-27T03:22:04;10.73;;;4.80;;
5774;SDS011;2913;51.120;6.772;2022-11-27T03:24:31;17.30;;;5.47;;
5774;SDS011;2913;51.120;6.772;2022-11-27T03:26:58;20.50;;;4.82;;
5774;SDS011;2913;51.120;6.772;2022-11-27T03:31:59;10.07;;;4.20;;
5774;SDS011;2913;51.120;6.772;2022-11-27T03:34:26;31.55;;;7.97;;
5774;SDS011;2913;51.120;6.772;2022-11-27T03:36:54;16.25;;;5.65;;
5774;SDS011;2913;51.120;6.772;2022-11-27T03:39:22;10.05;;;4.10;;
5774;SDS011;2913;51.120;6.772;2022-11-27T03:44:31;22.90;;;5.95;;
5774;SDS011;2913;51.120;6.772;2022-11-27T03:55:20;25.23;;;7.68;;
5774;SDS011;2913;51.120;6.772;2022-11-27T03:58:10;24.83;;;8.02;;
5774;SDS011;2913;51.120;6.772;2022-11-27T04:00:44;23.23;;;7.07;;
5774;SDS011;2913;51.120;6.772;2022-11-27T04:03:14;27.98;;;8.32;;
5774;SDS011;2913;51.120;6.772;2022-11-27T04:05:49;26.50;;;8.13;;
5774;SDS011;2913;51.120;6.772;2022-11-27T04:08:17;22.33;;;7.55;;
5774;SDS011;2913;51.120;6.772;2022-11-27T04:10:46;20.48;;;7.97;;
5774;SDS011;2913;51.120;6.772;2022-11-27T04:13:12;17.63;;;6.28;;
5774;SDS011;2913;51.120;6.772;2022-11-27T04:15:38;17.40;;;5.97;;
5774;SDS011;2913;51.120;6.772;2022-11-27T04:18:03;25.92;;;8.02;;
5774;SDS011;2913;51.120;6.772;2022-11-27T04:20:29;23.35;;;6.72;;
5774;SDS011;2913;51.120;6.772;2022-11-27T04:22:57;12.60;;;5.38;;
5774;SDS011;2913;51.120;6.772;2022-11-27T04:25:23;19.73;;;6.47;;
5774;SDS011;2913;51.120;6.772;2022-11-27T04:27:53;20.38;;;8.77;;
5774;SDS011;2913;51.120;6.772;2022-11-27T04:30:19;9.77;;;5.43;;
5774;SDS011;2913;51.120;6.772;2022-11-27T04:32:47;13.60;;;4.93;;
5774;SDS011;2913;51.120;6.772;2022-11-27T04:35:13;30.13;;;9.80;;
5774;SDS011;2913;51.120;6.772;2022-11-27T04:37:41;20.95;;;6.43;;
5774;SDS011;2913;51.120;6.772;2022-11-27T04:40:07;21.35;;;6.95;;
5774;SDS011;2913;51.120;6.772;2022-11-27T04:42:33;23.90;;;7.03;;
5774;SDS011;2913;51.120;6.772;2022-11-27T04:44:58;24.85;;;8.45;;
5774;SDS011;2913;51.120;6.772;2022-11-27T04:47:24;10.43;;;5.32;;
5774;SDS011;2913;51.120;6.772;2022-11-27T04:49:53;16.98;;;6.03;;
5774;SDS011;2913;51.120;6.772;2022-11-27T04:52:19;16.88;;;5.72;;
5774;SDS011;2913;51.120;6.772;2022-11-27T04:54:44;15.10;;;5.43;;
5774;SDS011;2913;51.120;6.772;2022-11-27T04:57:10;16.77;;;7.22;;
5774;SDS011;2913;51.120;6.772;2022-11-27T04:59:38;19.42;;;6.57;;
5774;SDS011;2913;51.120;6.772;2022-11-27T05:02:06;22.25;;;7.53;;
5774;SDS011;2913;51.120;6.772;2022-11-27T05:04:31;20.52;;;7.10;;
5774;SDS011;2913;51.120;6.772;2022-11-27T05:06:57;22.02;;;7.85;;
5774;SDS011;2913;51.120;6.772;2022-11-27T05:09:25;14.35;;;4.38;;
5774;SDS011;2913;51.120;6.772;2022-11-27T05:11:51;21.83;;;8.30;;
5774;SDS011;2913;51.120;6.772;2022-11-27T05:14:16;20.48;;;6.85;;
5774;SDS011;2913;51.120;6.772;2022-11-27T05:16:48;26.17;;;8.60;;
5774;SDS011;2913;51.120;6.772;2022-11-27T05:19:16;22.63;;;7.57;;
5774;SDS011;2913;51.120;6.772;2022-11-27T05:21:43;17.80;;;6.63;;
5774;SDS011;2913;51.120;6.772;2022-11-27T05:24:15;21.17;;;6.88;;
5774;SDS011;2913;51.120;6.772;2022-11-27T05:26:45;18.58;;;6.05;;
5774;SDS011;2913;51.120;6.772;2022-11-27T05:29:11;20.95;;;7.53;;
5774;SDS011;2913;51.120;6.772;2022-11-27T05:31:37;23.70;;;5.93;;
5774;SDS011;2913;51.120;6.772;2022-11-27T05:34:03;27.63;;;8.25;;
5774;SDS011;2913;51.120;6.772;2022-11-27T05:36:29;18.75;;;7.22;;
5774;SDS011;2913;51.120;6.772;2022-11-27T05:38:56;13.55;;;5.47;;
5774;SDS011;2913;51.120;6.772;2022-11-27T05:41:24;27.08;;;6.57;;
5774;SDS011;2913;51.120;6.772;2022-11-27T05:43:52;14.27;;;6.18;;
5774;SDS011;2913;51.120;6.772;2022-11-27T05:46:19;11.45;;;4.25;;
5774;SDS011;2913;51.120;6.772;2022-11-27T05:48:46;10.40;;;4.55;;
5774;SDS011;2913;51.120;6.772;2022-11-27T05:51:17;17.10;;;6.20;;
5774;SDS011;2913;51.120;6.772;2022-11-27T05:53:42;20.10;;;7.15;;
5774;SDS011;2913;51.120;6.772;2022-11-27T05:56:16;22.33;;;7.07;;
5774;SDS011;2913;51.120;6.772;2022-11-27T05:58:43;12.82;;;4.72;;
5774;SDS011;2913;51.120;6.772;2022-11-27T06:01:18;19.85;;;6.82;;
5774;SDS011;2913;51.120;6.772;2022-11-27T06:03:46;14.10;;;4.53;;
5774;SDS011;2913;51.120;6.772;2022-11-27T06:06:17;17.05;;;6.97;;
5774;SDS011;2913;51.120;6.772;2022-11-27T06:08:44;16.90;;;6.57;;
5774;SDS011;2913;51.120;6.772;2022-11-27T06:11:12;26.38;;;7.07;;
5774;SDS011;2913;51.120;6.772;2022-11-27T06:13:40;10.80;;;4.38;;
5774;SDS011;2913;51.120;6.772;2022-11-27T06:16:12;23.40;;;6.57;;
5774;SDS011;2913;51.120;6.772;2022-11-27T06:18:39;13.63;;;5.45;;
5774;SDS011;2913;51.120;6.772;2022-11-27T06:21:09;15.35;;;5.65;;
5774;SDS011;2913;51.120;6.772;2022-11-27T06:23:36;16.10;;;5.28;;
5774;SDS011;2913;51.120;6.772;2022-11-27T06:29:00;12.63;;;5.70;;
5774;SDS011;2913;51.120;6.772;2022-11-27T06:31:27;12.02;;;5.30;;
5774;SDS011;2913;51.120;6.772;2022-11-27T06:33:59;13.48;;;4.32;;
5774;SDS011;2913;51.120;6.772;2022-11-27T06:36:28;7.90;;;4.05;;
5774;SDS011;2913;51.120;6.772;2022-11-27T06:38:55;19.10;;;5.90;;
5774;SDS011;2913;51.120;6.772;2022-11-27T06:41:22;18.67;;;6.20;;
5774;SDS011;2913;51.120;6.772;2022-11-27T06:43:52;18.08;;;6.32;;
5774;SDS011;2913;51.120;6.772;2022-11-27T06:46:25;15.50;;;5.63;;
5774;SDS011;2913;51.120;6.772;2022-11-27T06:48:51;10.65;;;4.57;;
5774;SDS011;2913;51.120;6.772;2022-11-27T06:51:24;15.93;;;6.00;;
5774;SDS011;2913;51.120;6.772;2022-11-27T06:53:54;19.52;;;6.13;;
5774;SDS011;2913;51.120;6.772;2022-11-27T06:56:24;7.47;;;4.25;;
5774;SDS011;2913;51.120;6.772;2022-11-27T06:58:55;12.45;;;5.40;;
5774;SDS011;2913;51.120;6.772;2022-11-27T07:01:22;15.00;;;5.88;;
5774;SDS011;2913;51.120;6.772;2022-11-27T07:03:51;11.48;;;4.57;;
5774;SDS011;2913;51.120;6.772;2022-11-27T07:06:18;11.25;;;4.40;;
5774;SDS011;2913;51.120;6.772;2022-11-27T07:08:46;11.50;;;4.82;;
5774;SDS011;2913;51.120;6.772;2022-11-27T07:11:13;16.02;;;5.60;;
5774;SDS011;2913;51.120;6.772;2022-11-27T07:13:47;9.43;;;3.63;;
5774;SDS011;2913;51.120;6.772;2022-11-27T07:16:14;10.85;;;3.38;;
5774;SDS011;2913;51.120;6.772;2022-11-27T07:18:41;16.95;;;5.20;;
5774;SDS011;2913;51.120;6.772;2022-11-27T07:21:09;13.73;;;5.22;;
5774;SDS011;2913;51.120;6.772;2022-11-27T07:23:35;16.40;;;5.35;;
5774;SDS011;2913;51.120;6.772;2022-11-27T07:26:05;12.93;;;4.15;;
5774;SDS011;2913;51.120;6.772;2022-11-27T07:28:31;16.35;;;6.13;;
5774;SDS011;2913;51.120;6.772;2022-11-27T07:30:59;12.73;;;4.75;;
5774;SDS011;2913;51.120;6.772;2022-11-27T07:33:25;15.82;;;6.40;;
5774;SDS011;2913;51.120;6.772;2022-11-27T07:36:01;15.52;;;5.05;;
5774;SDS011;2913;51.120;6.772;2022-11-27T07:38:27;11.77;;;4.70;;
5774;SDS011;2913;51.120;6.772;2022-11-27T07:40:52;14.82;;;5.50;;
5774;SDS011;2913;51.120;6.772;2022-11-27T07:43:18;15.43;;;5.00;;
5774;SDS011;2913;51.120;6.772;2022-11-27T07:45:43;17.88;;;5.72;;
5774;SDS011;2913;51.120;6.772;2022-11-27T07:48:09;16.33;;;5.57;;
5774;SDS011;2913;51.120;6.772;2022-11-27T07:50:37;9.25;;;4.38;;
5774;SDS011;2913;51.120;6.772;2022-11-27T07:53:03;14.27;;;5.47;;
5774;SDS011;2913;51.120;6.772;2022-11-27T07:55:31;9.95;;;3.78;;
5774;SDS011;2913;51.120;6.772;2022-11-27T07:57:57;8.40;;;3.88;;
5774;SDS011;2913;51.120;6.772;2022-11-27T08:00:24;16.13;;;5.78;;
5774;SDS011;2913;51.120;6.772;2022-11-27T08:02:55;15.20;;;6.25;;
5774;SDS011;2913;51.120;6.772;2022-11-27T08:05:26;22.30;;;5.70;;
5774;SDS011;2913;51.120;6.772;2022-11-27T08:07:52;10.23;;;4.90;;
5774;SDS011;2913;51.120;6.772;2022-11-27T08:10:20;8.77;;;4.35;;
5774;SDS011;2913;51.120;6.772;2022-11-27T08:12:46;13.68;;;5.50;;
5774;SDS011;2913;51.120;6.772;2022-11-27T08:15:12;7.50;;;3.40;;
5774;SDS011;2913;51.120;6.772;2022-11-27T08:17:38;13.90;;;5.13;;
5774;SDS011;2913;51.120;6.772;2022-11-27T08:20:06;12.82;;;4.53;;
5774;SDS011;2913;51.120;6.772;2022-11-27T08:22:34;10.35;;;5.00;;
5774;SDS011;2913;51.120;6.772;2022-11-27T08:25:00;15.13;;;5.55;;
5774;SDS011;2913;51.120;6.772;2022-11-27T08:27:26;13.13;;;4.45;;
5774;SDS011;2913;51.120;6.772;2022-11-27T08:29:51;16.85;;;4.90;;
5774;SDS011;2913;51.120;6.772;2022-11-27T08:32:19;15.93;;;5.38;;
5774;SDS011;2913;51.120;6.772;2022-11-27T08:34:45;14.48;;;5.22;;
5774;SDS011;2913;51.120;6.772;2022-11-27T08:37:10;12.20;;;5.25;;
5774;SDS011;2913;51.120;6.772;2022-11-27T08:39:36;13.07;;;4.05;;
5774;SDS011;2913;51.120;6.772;2022-11-27T08:42:02;12.68;;;5.35;;
5774;SDS011;2913;51.120;6.772;2022-11-27T08:44:27;15.18;;;5.28;;
5774;SDS011;2913;51.120;6.772;2022-11-27T08:46:53;12.10;;;5.40;;
5774;SDS011;2913;51.120;6.772;2022-11-27T08:49:18;13.23;;;5.40;;
5774;SDS011;2913;51.120;6.772;2022-11-27T08:51:46;14.15;;;5.60;;
5774;SDS011;2913;51.120;6.772;2022-11-27T08:54:12;12.50;;;5.63;;
5774;SDS011;2913;51.120;6.772;2022-11-27T08:56:40;16.77;;;5.20;;
5774;SDS011;2913;51.120;6.772;2022-11-27T08:59:05;10.30;;;4.30;;
5774;SDS011;2913;51.120;6.772;2022-11-27T09:01:31;11.93;;;4.90;;
5774;SDS011;2913;51.120;6.772;2022-11-27T09:03:57;11.90;;;4.25;;
5774;SDS011;2913;51.120;6.772;2022-11-27T09:06:24;12.65;;;5.80;;
5774;SDS011;2913;51.120;6.772;2022-11-27T09:08:54;11.85;;;4.20;;
5774;SDS011;2913;51.120;6.772;2022-11-27T09:11:23;10.55;;;4.93;;
5774;SDS011;2913;51.120;6.772;2022-11-27T09:13:49;9.98;;;4.55;;
5774;SDS011;2913;51.120;6.772;2022-11-27T09:16:16;9.45;;;4.85;;
5774;SDS011;2913;51.120;6.772;2022-11-27T09:18:43;7.90;;;4.07;;
5774;SDS011;2913;51.120;6.772;2022-11-27T09:21:17;11.85;;;5.10;;
5774;SDS011;2913;51.120;6.772;2022-11-27T09:23:44;16.70;;;5.28;;
5774;SDS011;2913;51.120;6.772;2022-11-27T09:26:13;10.63;;;4.30;;
5774;SDS011;2913;51.120;6.772;2022-11-27T09:28:41;16.60;;;3.47;;
5774;SDS011;2913;51.120;6.772;2022-11-27T09:31:08;11.57;;;3.97;;
5774;SDS011;2913;51.120;6.772;2022-11-27T09:33:35;10.70;;;5.13;;
5774;SDS011;2913;51.120;6.772;2022-11-27T09:36:06;13.30;;;4.68;;
5774;SDS011;2913;51.120;6.772;2022-11-27T09:38:34;16.45;;;5.28;;
5774;SDS011;2913;51.120;6.772;2022-11-27T09:41:47;7.78;;;3.58;;
5774;SDS011;2913;51.120;6.772;2022-11-27T09:44:12;6.95;;;2.90;;
5774;SDS011;2913;51.120;6.772;2022-11-27T09:47:49;9.02;;;4.25;;
5774;SDS011;2913;51.120;6.772;2022-11-27T09:50:05;9.43;;;4.03;;
5774;SDS011;2913;51.120;6.772;2022-11-27T09:52:39;11.90;;;4.75;;
5774;SDS011;2913;51.120;6.772;2022-11-27T09:55:13;12.57;;;4.85;;
5774;SDS011;2913;51.120;6.772;2022-11-27T09:57:42;15.68;;;5.50;;
5774;SDS011;2913;51.120;6.772;2022-11-27T10:00:17;17.98;;;5.07;;
5774;SDS011;2913;51.120;6.772;2022-11-27T10:02:44;13.05;;;5.93;;
5774;SDS011;2913;51.120;6.772;2022-11-27T10:05:22;9.55;;;4.78;;
5774;SDS011;2913;51.120;6.772;2022-11-27T10:18:45;12.05;;;5.45;;
5774;SDS011;2913;51.120;6.772;2022-11-27T10:27:00;20.63;;;7.05;;
5774;SDS011;2913;51.120;6.772;2022-11-27T10:32:24;12.50;;;4.30;;
5774;SDS011;2913;51.120;6.772;2022-11-27T10:35:09;6.57;;;2.75;;
5774;SDS011;2913;51.120;6.772;2022-11-27T10:42:46;6.60;;;2.95;;
5774;SDS011;2913;51.120;6.772;2022-11-27T10:48:15;7.07;;;3.45;;
5774;SDS011;2913;51.120;6.772;2022-11-27T10:50:43;10.65;;;4.50;;
5774;SDS011;2913;51.120;6.772;2022-11-27T10:53:33;10.23;;;4.85;;
5774;SDS011;2913;51.120;6.772;2022-11-27T11:01:19;13.63;;;6.07;;
5774;SDS011;2913;51.120;6.772;2022-11-27T11:03:45;15.15;;;4.38;;
5774;SDS011;2913;51.120;6.772;2022-11-27T11:06:18;8.82;;;4.47;;
5774;SDS011;2913;51.120;6.772;2022-11-27T11:09:02;12.38;;;4.32;;
5774;SDS011;2913;51.120;6.772;2022-11-27T11:11:34;7.53;;;3.80;;
5774;SDS011;2913;51.120;6.772;2022-11-27T11:14:00;11.05;;;4.82;;
5774;SDS011;2913;51.120;6.772;2022-11-27T11:16:28;11.82;;;4.57;;
5774;SDS011;2913;51.120;6.772;2022-11-27T11:18:55;11.88;;;3.92;;
5774;SDS011;2913;51.120;6.772;2022-11-27T11:23:56;10.82;;;4.78;;
5774;SDS011;2913;51.120;6.772;2022-11-27T11:26:30;8.50;;;4.65;;
5774;SDS011;2913;51.120;6.772;2022-11-27T11:29:17;14.32;;;5.00;;
5774;SDS011;2913;51.120;6.772;2022-11-27T11:31:45;16.40;;;5.65;;
5774;SDS011;2913;51.120;6.772;2022-11-27T11:39:24;10.68;;;5.47;;
5774;SDS011;2913;51.120;6.772;2022-11-27T11:41:56;14.00;;;4.55;;
5774;SDS011;2913;51.120;6.772;2022-11-27T11:44:30;11.57;;;4.57;;
5774;SDS011;2913;51.120;6.772;2022-11-27T11:47:03;10.90;;;3.47;;
5774;SDS011;2913;51.120;6.772;2022-11-27T11:49:29;22.60;;;9.45;;
5774;SDS011;2913;51.120;6.772;2022-11-27T11:52:08;14.45;;;5.93;;
5774;SDS011;2913;51.120;6.772;2022-11-27T12:00:10;6.75;;;3.50;;
5774;SDS011;2913;51.120;6.772;2022-11-27T12:08:32;8.48;;;4.90;;
5774;SDS011;2913;51.120;6.772;2022-11-27T12:11:16;11.30;;;3.95;;
5774;SDS011;2913;51.120;6.772;2022-11-27T12:14:38;8.65;;;3.25;;
5774;SDS011;2913;51.120;6.772;2022-11-27T12:25:09;9.52;;;4.63;;
5774;SDS011;2913;51.120;6.772;2022-11-27T12:35:47;9.57;;;4.28;;
5774;SDS011;2913;51.120;6.772;2022-11-27T12:47:20;12.45;;;2.88;;
5774;SDS011;2913;51.120;6.772;2022-11-27T12:49:54;9.70;;;3.78;;
5774;SDS011;2913;51.120;6.772;2022-11-27T12:52:28;8.20;;;3.50;;
5774;SDS011;2913;51.120;6.772;2022-11-27T12:55:05;12.55;;;4.30;;
5774;SDS011;2913;51.120;6.772;2022-11-27T13:00:18;14.05;;;2.92;;
5774;SDS011;2913;51.120;6.772;2022-11-27T13:05:22;8.82;;;4.03;;
5774;SDS011;2913;51.120;6.772;2022-11-27T13:08:01;7.90;;;3.40;;
5774;SDS011;2913;51.120;6.772;2022-11-27T13:10:38;11.48;;;4.28;;
5774;SDS011;2913;51.120;6.772;2022-11-27T13:15:45;8.75;;;4.72;;
5774;SDS011;2913;51.120;6.772;2022-11-27T13:18:37;16.80;;;5.75;;
5774;SDS011;2913;51.120;6.772;2022-11-27T13:21:13;12.40;;;6.07;;
5774;SDS011;2913;51.120;6.772;2022-11-27T13:23:45;9.80;;;4.93;;
5774;SDS011;2913;51.120;6.772;2022-11-27T13:26:13;10.40;;;4.35;;
5774;SDS011;2913;51.120;6.772;2022-11-27T13:28:45;11.25;;;3.17;;
5774;SDS011;2913;51.120;6.772;2022-11-27T13:31:25;11.25;;;4.13;;
5774;SDS011;2913;51.120;6.772;2022-11-27T13:34:00;11.40;;;5.18;;
5774;SDS011;2913;51.120;6.772;2022-11-27T13:36:46;8.70;;;3.90;;
5774;SDS011;2913;51.120;6.772;2022-11-27T13:42:06;11.55;;;4.75;;
5774;SDS011;2913;51.120;6.772;2022-11-27T13:44:50;9.90;;;3.92;;
5774;SDS011;2913;51.120;6.772;2022-11-27T13:47:24;10.70;;;5.15;;
5774;SDS011;2913;51.120;6.772;2022-11-27T13:49:56;12.57;;;5.75;;
5774;SDS011;2913;51.120;6.772;2022-11-27T13:52:24;8.88;;;3.50;;
5774;SDS011;2913;51.120;6.772;2022-11-27T13:54:54;8.57;;;3.95;;
5774;SDS011;2913;51.120;6.772;2022-11-27T13:57:21;8.30;;;3.67;;
5774;SDS011;2913;51.120;6.772;2022-11-27T14:05:05;7.95;;;3.78;;
5774;SDS011;2913;51.120;6.772;2022-11-27T14:07:40;11.45;;;5.03;;
5774;SDS011;2913;51.120;6.772;2022-11-27T14:10:22;9.77;;;4.75;;
5774;SDS011;2913;51.120;6.772;2022-11-27T14:12:57;11.70;;;5.22;;
5774;SDS011;2913;51.120;6.772;2022-11-27T14:15:26;11.80;;;4.90;;
5774;SDS011;2913;51.120;6.772;2022-11-27T14:18:02;11.13;;;3.17;;
5774;SDS011;2913;51.120;6.772;2022-11-27T14:20:32;6.50;;;3.13;;
5774;SDS011;2913;51.120;6.772;2022-11-27T14:23:11;10.13;;;3.33;;
5774;SDS011;2913;51.120;6.772;2022-11-27T14:25:36;11.65;;;3.92;;
5774;SDS011;2913;51.120;6.772;2022-11-27T14:28:09;8.43;;;4.70;;
5774;SDS011;2913;51.120;6.772;2022-11-27T14:30:49;9.02;;;3.30;;
5774;SDS011;2913;51.120;6.772;2022-11-27T14:33:26;7.53;;;3.40;;
5774;SDS011;2913;51.120;6.772;2022-11-27T14:38:19;8.27;;;5.05;;
5774;SDS011;2913;51.120;6.772;2022-11-27T14:40:46;9.85;;;4.00;;
5774;SDS011;2913;51.120;6.772;2022-11-27T14:43:17;8.75;;;3.63;;
5774;SDS011;2913;51.120;6.772;2022-11-27T14:45:52;8.27;;;3.38;;
5774;SDS011;2913;51.120;6.772;2022-11-27T14:48:25;9.80;;;3.78;;
5774;SDS011;2913;51.120;6.772;2022-11-27T14:50:55;8.18;;;4.50;;
5774;SDS011;2913;51.120;6.772;2022-11-27T14:53:22;9.75;;;3.60;;
5774;SDS011;2913;51.120;6.772;2022-11-27T14:55:51;5.72;;;2.95;;
5774;SDS011;2913;51.120;6.772;2022-11-27T14:58:21;6.47;;;2.90;;
5774;SDS011;2913;51.120;6.772;2022-11-27T15:00:56;11.65;;;3.80;;
5774;SDS011;2913;51.120;6.772;2022-11-27T15:03:26;10.43;;;4.20;;
5774;SDS011;2913;51.120;6.772;2022-11-27T15:05:54;4.57;;;2.33;;
5774;SDS011;2913;51.120;6.772;2022-11-27T15:08:22;8.55;;;2.67;;
5774;SDS011;2913;51.120;6.772;2022-11-27T15:10:50;8.88;;;4.47;;
5774;SDS011;2913;51.120;6.772;2022-11-27T15:13:25;10.65;;;4.43;;
5774;SDS011;2913;51.120;6.772;2022-11-27T15:16:03;5.83;;;3.43;;
5774;SDS011;2913;51.120;6.772;2022-11-27T15:18:39;7.55;;;3.97;;
5774;SDS011;2913;51.120;6.772;2022-11-27T15:21:10;8.03;;;3.40;;
5774;SDS011;2913;51.120;6.772;2022-11-27T15:23:45;7.65;;;4.18;;
5774;SDS011;2913;51.120;6.772;2022-11-27T15:26:14;7.95;;;4.28;;
5774;SDS011;2913;51.120;6.772;2022-11-27T15:28:52;8.15;;;3.80;;
5774;SDS011;2913;51.120;6.772;2022-11-27T15:36:36;8.70;;;3.90;;
5774;SDS011;2913;51.120;6.772;2022-11-27T15:39:14;10.15;;;3.72;;
5774;SDS011;2913;51.120;6.772;2022-11-27T15:42:09;11.60;;;4.90;;
5774;SDS011;2913;51.120;6.772;2022-11-27T15:44:35;8.32;;;5.05;;
5774;SDS011;2913;51.120;6.772;2022-11-27T15:47:02;11.20;;;5.90;;
5774;SDS011;2913;51.120;6.772;2022-11-27T15:49:30;14.85;;;6.45;;
5774;SDS011;2913;51.120;6.772;2022-11-27T15:51:56;21.02;;;6.93;;
5774;SDS011;2913;51.120;6.772;2022-11-27T15:54:24;17.17;;;7.60;;
5774;SDS011;2913;51.120;6.772;2022-11-27T15:56:50;10.30;;;5.50;;
5774;SDS011;2913;51.120;6.772;2022-11-27T15:59:16;12.75;;;6.47;;
5774;SDS011;2913;51.120;6.772;2022-11-27T16:01:44;9.80;;;5.05;;
5774;SDS011;2913;51.120;6.772;2022-11-27T16:04:13;7.80;;;4.38;;
5774;SDS011;2913;51.120;6.772;2022-11-27T16:06:38;15.13;;;7.15;;
5774;SDS011;2913;51.120;6.772;2022-11-27T16:09:06;14.95;;;7.80;;
5774;SDS011;2913;51.120;6.772;2022-11-27T16:11:32;8.65;;;4.00;;
5774;SDS011;2913;51.120;6.772;2022-11-27T16:14:00;12.43;;;5.95;;
5774;SDS011;2913;51.120;6.772;2022-11-27T16:16:26;15.38;;;6.38;;
5774;SDS011;2913;51.120;6.772;2022-11-27T16:18:54;11.50;;;6.25;;
5774;SDS011;2913;51.120;6.772;2022-11-27T16:21:21;7.88;;;4.15;;
5774;SDS011;2913;51.120;6.772;2022-11-27T16:23:49;14.75;;;5.45;;
5774;SDS011;2913;51.120;6.772;2022-11-27T16:26:20;10.50;;;4.78;;
5774;SDS011;2913;51.120;6.772;2022-11-27T16:28:47;10.45;;;5.18;;
5774;SDS011;2913;51.120;6.772;2022-11-27T16:31:15;14.50;;;7.50;;
5774;SDS011;2913;51.120;6.772;2022-11-27T16:33:41;7.15;;;3.45;;
5774;SDS011;2913;51.120;6.772;2022-11-27T16:36:11;12.52;;;5.68;;
5774;SDS011;2913;51.120;6.772;2022-11-27T16:38:38;12.90;;;5.68;;
5774;SDS011;2913;51.120;6.772;2022-11-27T16:41:06;14.40;;;6.57;;
5774;SDS011;2913;51.120;6.772;2022-11-27T16:43:34;11.80;;;5.70;;
5774;SDS011;2913;51.120;6.772;2022-11-27T16:48:34;12.82;;;5.47;;
5774;SDS011;2913;51.120;6.772;2022-11-27T16:51:05;10.18;;;5.55;;
5774;SDS011;2913;51.120;6.772;2022-11-27T16:53:39;12.43;;;5.90;;
5774;SDS011;2913;51.120;6.772;2022-11-27T16:56:08;14.60;;;6.28;;
5774;SDS011;2913;51.120;6.772;2022-11-27T16:58:41;10.55;;;5.78;;
5774;SDS011;2913;51.120;6.772;2022-11-27T17:01:08;10.35;;;5.65;;
5774;SDS011;2913;51.120;6.772;2022-11-27T17:03:42;10.07;;;4.70;;
5774;SDS011;2913;51.120;6.772;2022-11-27T17:06:08;9.88;;;4.55;;
5774;SDS011;2913;51.120;6.772;2022-11-27T17:08:36;8.65;;;3.65;;
5774;SDS011;2913;51.120;6.772;2022-11-27T17:11:17;9.63;;;4.75;;
5774;SDS011;2913;51.120;6.772;2022-11-27T17:13:49;10.95;;;4.80;;
5774;SDS011;2913;51.120;6.772;2022-11-27T17:16:17;7.68;;;3.92;;
5774;SDS011;2913;51.120;6.772;2022-11-27T17:18:46;10.77;;;5.50;;
5774;SDS011;2913;51.120;6.772;2022-11-27T17:21:19;12.48;;;5.53;;
5774;SDS011;2913;51.120;6.772;2022-11-27T17:23:48;10.45;;;4.90;;
5774;SDS011;2913;51.120;6.772;2022-11-27T17:26:17;7.13;;;4.55;;
5774;SDS011;2913;51.120;6.772;2022-11-27T17:28:44;8.30;;;5.00;;
5774;SDS011;2913;51.120;6.772;2022-11-27T17:31:11;11.35;;;5.20;;
5774;SDS011;2913;51.120;6.772;2022-11-27T17:33:39;11.93;;;5.43;;
5774;SDS011;2913;51.120;6.772;2022-11-27T17:36:05;10.45;;;4.03;;
5774;SDS011;2913;51.120;6.772;2022-11-27T17:38:31;10.70;;;4.88;;
5774;SDS011;2913;51.120;6.772;2022-11-27T17:41:00;11.35;;;3.95;;
5774;SDS011;2913;51.120;6.772;2022-11-27T17:43:30;10.27;;;4.75;;
5774;SDS011;2913;51.120;6.772;2022-11-27T17:45:56;5.93;;;3.03;;
5774;SDS011;2913;51.120;6.772;2022-11-27T17:48:22;6.00;;;2.90;;